createdAt,value
2022-08-23T00:02:44.069Z,5.50
2022-08-23T00:05:28.473Z,7.60
2022-08-23T00:08:12.756Z,6.55
2022-08-23T00:10:56.930Z,6.22
2022-08-23T00:13:47.995Z,6.35
2022-08-23T00:16:33.820Z,6.45
2022-08-23T00:19:19.865Z,6.55
2022-08-23T00:22:03.961Z,6.75
2022-08-23T00:24:49.666Z,6.47
2022-08-23T00:27:34.155Z,5.97
2022-08-23T00:30:19.264Z,6.72
2022-08-23T00:33:05.050Z,6.03
2022-08-23T00:35:49.126Z,6.40
2022-08-23T00:38:35.080Z,7.28
2022-08-23T00:41:19.397Z,6.85
2022-08-23T00:44:18.271Z,7.00
2022-08-23T00:47:19.522Z,5.85
2022-08-23T00:50:19.191Z,6.60
2022-08-23T00:53:13.030Z,7.75
2022-08-23T00:56:01.281Z,7.00
2022-08-23T00:58:46.456Z,7.70
2022-08-23T01:01:30.954Z,7.75
2022-08-23T01:04:17.538Z,7.97
2022-08-23T01:07:09.807Z,7.65
2022-08-23T01:09:57.714Z,7.43
2022-08-23T01:12:46.823Z,7.30
2022-08-23T01:15:35.469Z,6.88
2022-08-23T01:18:24.990Z,8.70
2022-08-23T01:21:14.167Z,6.80
2022-08-23T01:24:03.458Z,6.95
2022-08-23T01:26:48.637Z,5.75
2022-08-23T01:29:33.380Z,5.22
2022-08-23T01:32:17.566Z,5.90
2022-08-23T01:35:01.750Z,6.82
2022-08-23T01:37:47.989Z,6.40
2022-08-23T01:40:34.026Z,6.80
2022-08-23T01:43:20.018Z,6.43
2022-08-23T01:46:10.244Z,5.65
2022-08-23T01:48:55.875Z,7.30
2022-08-23T01:51:41.492Z,7.57
2022-08-23T01:54:27.156Z,6.53
2022-08-23T01:57:13.195Z,7.15
2022-08-23T01:59:58.447Z,7.30
2022-08-23T02:02:43.280Z,7.53
2022-08-23T02:05:28.068Z,6.70
2022-08-23T02:08:29.638Z,7.68
2022-08-23T02:11:18.090Z,6.75
2022-08-23T02:14:08.994Z,7.50
2022-08-23T02:17:11.030Z,9.38
2022-08-23T02:19:55.497Z,8.40
2022-08-23T02:22:40.294Z,7.43
2022-08-23T02:25:25.597Z,6.90
2022-08-23T02:28:10.285Z,6.90
2022-08-23T02:30:56.346Z,7.15
2022-08-23T02:33:42.579Z,7.82
2022-08-23T02:36:28.475Z,6.82
2022-08-23T02:39:13.552Z,7.47
2022-08-23T02:41:57.860Z,8.48
2022-08-23T02:44:41.955Z,7.53
2022-08-23T02:47:27.771Z,8.00
2022-08-23T02:50:25.648Z,8.05
2022-08-23T02:53:09.955Z,8.90
2022-08-23T02:55:56.574Z,9.02
2022-08-23T02:58:41.156Z,9.00
2022-08-23T03:01:37.659Z,9.68
2022-08-23T03:04:39.044Z,9.23
2022-08-23T03:07:23.172Z,8.05
2022-08-23T03:10:09.520Z,7.93
2022-08-23T03:12:57.346Z,9.50
2022-08-23T03:15:42.989Z,8.45
2022-08-23T03:18:27.130Z,9.43
2022-08-23T03:21:13.718Z,8.10
2022-08-23T03:23:57.767Z,8.68
2022-08-23T03:26:43.883Z,8.48
2022-08-23T03:29:28.018Z,10.90
2022-08-23T03:32:20.021Z,8.15
2022-08-23T03:35:05.191Z,8.88
2022-08-23T03:37:57.386Z,8.57
2022-08-23T03:40:41.587Z,9.15
2022-08-23T03:43:25.825Z,8.80
2022-08-23T03:46:09.825Z,9.60
2022-08-23T03:48:59.712Z,8.27
2022-08-23T03:51:45.964Z,8.25
2022-08-23T03:54:32.196Z,9.48
2022-08-23T03:57:16.261Z,7.93
2022-08-23T04:00:00.362Z,8.75
2022-08-23T04:02:48.049Z,9.48
2022-08-23T04:05:32.818Z,8.77
2022-08-23T04:08:33.639Z,9.23
2022-08-23T04:11:22.531Z,8.63
2022-08-23T04:14:13.911Z,7.15
2022-08-23T04:16:57.900Z,8.93
2022-08-23T04:19:43.492Z,10.05
2022-08-23T04:22:27.595Z,9.93
2022-08-23T04:25:33.102Z,8.73
2022-08-23T04:28:18.578Z,9.32
2022-08-23T04:31:06.962Z,8.23
2022-08-23T04:33:52.588Z,9.00
2022-08-23T04:36:40.598Z,8.75
2022-08-23T04:39:29.403Z,10.27
2022-08-23T04:42:19.607Z,10.32
2022-08-23T04:45:09.146Z,8.48
2022-08-23T04:47:55.880Z,8.00
2022-08-23T04:50:40.123Z,8.73
2022-08-23T04:53:35.441Z,7.78
2022-08-23T04:56:43.259Z,7.60
2022-08-23T04:59:28.281Z,8.15
2022-08-23T05:02:14.653Z,8.55
2022-08-23T05:04:58.852Z,8.00
2022-08-23T05:07:43.225Z,7.32
2022-08-23T05:10:28.881Z,7.50
2022-08-23T05:13:13.152Z,7.90
2022-08-23T05:15:57.486Z,6.97
2022-08-23T05:18:46.942Z,8.43
2022-08-23T05:21:31.080Z,8.05
2022-08-23T05:24:15.531Z,7.43
2022-08-23T05:27:02.268Z,7.45
2022-08-23T05:29:47.390Z,8.07
2022-08-23T05:32:33.735Z,8.00
2022-08-23T05:35:19.792Z,7.95
2022-08-23T05:38:04.751Z,7.07
2022-08-23T05:40:54.914Z,8.27
2022-08-23T05:43:39.577Z,7.97
2022-08-23T05:46:28.450Z,8.15
2022-08-23T05:49:31.540Z,11.05
2022-08-23T05:52:17.936Z,9.98
2022-08-23T05:55:02.084Z,8.50
2022-08-23T05:58:10.933Z,5.40
2022-08-23T06:00:55.629Z,5.80
2022-08-23T06:03:39.903Z,6.28
2022-08-23T06:06:36.955Z,8.05
2022-08-23T06:09:24.027Z,7.28
2022-08-23T06:12:08.455Z,6.32
2022-08-23T06:14:52.673Z,7.15
2022-08-23T06:17:37.684Z,7.50
2022-08-23T06:20:21.940Z,8.75
2022-08-23T06:23:17.555Z,6.28
2022-08-23T06:26:03.536Z,6.00
2022-08-23T06:28:57.244Z,6.15
2022-08-23T06:31:48.800Z,7.75
2022-08-23T06:34:44.158Z,5.88
2022-08-23T06:37:57.513Z,5.93
2022-08-23T06:41:08.555Z,5.47
2022-08-23T06:44:20.070Z,5.25
2022-08-23T06:47:33.454Z,5.30
2022-08-23T06:50:18.435Z,5.35
2022-08-23T06:53:26.176Z,5.28
2022-08-23T06:56:18.936Z,5.30
2022-08-23T06:59:20.355Z,5.68
2022-08-23T07:02:28.815Z,4.80
2022-08-23T07:05:15.880Z,5.00
2022-08-23T07:08:22.684Z,5.63
2022-08-23T07:11:07.641Z,5.22
2022-08-23T07:13:54.297Z,4.90
2022-08-23T07:16:41.725Z,5.50
2022-08-23T07:19:29.411Z,4.97
2022-08-23T07:22:15.655Z,4.80
2022-08-23T07:25:00.143Z,5.18
2022-08-23T07:27:48.030Z,5.57
2022-08-23T07:30:34.930Z,5.55
2022-08-23T07:33:19.424Z,5.05
2022-08-23T07:36:30.698Z,5.15
2022-08-23T07:39:17.048Z,5.45
2022-08-23T07:42:22.099Z,4.65
2022-08-23T07:45:13.127Z,4.55
2022-08-23T07:48:01.898Z,5.10
2022-08-23T07:50:57.846Z,4.60
2022-08-23T07:53:46.319Z,4.80
2022-08-23T07:56:33.580Z,4.78
2022-08-23T07:59:26.460Z,4.68
2022-08-23T08:02:36.348Z,4.82
2022-08-23T08:05:24.841Z,5.00
2022-08-23T08:08:11.413Z,4.65
2022-08-23T08:10:56.491Z,5.05
2022-08-23T08:13:42.530Z,5.57
2022-08-23T08:16:29.696Z,5.25
2022-08-23T08:19:18.959Z,6.22
2022-08-23T08:22:45.447Z,5.32
2022-08-23T08:25:50.103Z,5.68
2022-08-23T08:28:37.962Z,4.68
2022-08-23T08:31:23.189Z,5.07
2022-08-23T08:34:07.879Z,4.03
2022-08-23T08:36:54.641Z,4.38
2022-08-23T08:39:45.937Z,4.40
2022-08-23T08:42:44.816Z,4.25
2022-08-23T08:45:38.006Z,4.15
2022-08-23T08:48:25.290Z,3.80
2022-08-23T08:51:36.230Z,3.30
2022-08-23T08:54:24.334Z,4.72
2022-08-23T08:57:15.149Z,3.35
2022-08-23T09:00:04.230Z,3.17
2022-08-23T09:02:51.700Z,3.65
2022-08-23T09:05:39.877Z,3.53
2022-08-23T09:08:47.817Z,3.42
2022-08-23T09:11:48.264Z,3.70
2022-08-23T09:14:48.816Z,3.45
2022-08-23T09:17:43.904Z,3.17
2022-08-23T09:20:33.205Z,3.05
2022-08-23T09:23:22.119Z,2.97
2022-08-23T09:26:23.479Z,3.75
2022-08-23T09:29:18.511Z,3.72
2022-08-23T09:32:06.791Z,2.65
2022-08-23T09:34:53.467Z,2.42
2022-08-23T09:37:50.769Z,3.55
2022-08-23T09:40:38.867Z,4.85
2022-08-23T09:43:47.330Z,4.25
2022-08-23T09:46:36.024Z,3.88
2022-08-23T09:49:27.563Z,4.93
2022-08-23T09:52:26.112Z,4.38
2022-08-23T09:55:31.066Z,5.03
2022-08-23T09:58:20.134Z,4.13
2022-08-23T10:01:13.882Z,4.32
2022-08-23T10:04:24.705Z,3.20
2022-08-23T10:07:30.120Z,3.30
2022-08-23T10:10:17.419Z,3.85
2022-08-23T10:13:03.421Z,4.40
2022-08-23T10:16:00.474Z,3.58
2022-08-23T10:18:55.518Z,4.25
2022-08-23T10:21:47.277Z,3.38
2022-08-23T10:24:45.168Z,3.88
2022-08-23T10:28:06.914Z,5.07
2022-08-23T10:31:01.674Z,3.97
2022-08-23T10:34:00.074Z,3.83
2022-08-23T10:36:58.281Z,3.75
2022-08-23T10:39:51.785Z,3.70
2022-08-23T10:42:45.033Z,4.03
2022-08-23T10:45:33.002Z,3.80
2022-08-23T10:48:28.792Z,3.72
2022-08-23T10:51:31.200Z,4.20
2022-08-23T10:54:24.514Z,3.83
2022-08-23T10:57:16.662Z,4.03
2022-08-23T11:00:01.259Z,4.40
2022-08-23T11:02:56.313Z,4.45
2022-08-23T11:06:31.019Z,4.43
2022-08-23T11:09:58.412Z,4.32
2022-08-23T11:12:58.885Z,4.22
2022-08-23T11:15:46.485Z,3.80
2022-08-23T11:18:42.852Z,4.57
2022-08-23T11:21:47.870Z,3.88
2022-08-23T11:24:58.150Z,3.15
2022-08-23T11:27:45.921Z,3.83
2022-08-23T11:30:47.189Z,4.05
2022-08-23T11:33:37.821Z,3.95
2022-08-23T11:36:24.826Z,3.55
2022-08-23T11:39:12.089Z,4.65
2022-08-23T11:42:03.747Z,4.00
2022-08-23T11:44:52.050Z,3.78
2022-08-23T11:47:45.005Z,4.30
2022-08-23T11:50:39.340Z,4.82
2022-08-23T11:53:38.800Z,4.22
2022-08-23T11:56:58.006Z,5.00
2022-08-23T12:00:00.722Z,3.90
2022-08-23T12:03:02.590Z,4.07
2022-08-23T12:06:25.297Z,3.85
2022-08-23T12:09:36.666Z,4.57
2022-08-23T12:12:32.523Z,3.45
2022-08-23T12:15:20.258Z,4.28
2022-08-23T12:18:21.999Z,4.25
2022-08-23T12:21:18.069Z,4.53
2022-08-23T12:24:05.431Z,3.70
2022-08-23T12:26:58.460Z,4.18
2022-08-23T12:29:54.197Z,3.20
2022-08-23T12:32:47.883Z,3.92
2022-08-23T12:35:40.736Z,3.63
2022-08-23T12:38:38.033Z,3.65
2022-08-23T12:41:27.824Z,4.35
2022-08-23T12:44:11.965Z,4.80
2022-08-23T12:46:56.598Z,4.25
2022-08-23T12:49:41.193Z,3.85
2022-08-23T12:52:29.639Z,3.88
2022-08-23T12:55:15.908Z,3.88
2022-08-23T12:58:00.303Z,4.45
2022-08-23T13:00:54.425Z,4.80
2022-08-23T13:03:42.268Z,4.10
2022-08-23T13:06:29.500Z,3.78
2022-08-23T13:09:21.080Z,4.43
2022-08-23T13:12:07.285Z,5.50
2022-08-23T13:14:54.079Z,4.95
2022-08-23T13:17:41.165Z,4.63
2022-08-23T13:20:25.793Z,3.67
2022-08-23T13:23:10.553Z,5.60
2022-08-23T13:25:56.020Z,3.88
2022-08-23T13:28:40.087Z,4.30
2022-08-23T13:31:24.159Z,4.10
2022-08-23T13:34:08.278Z,4.75
2022-08-23T13:36:53.388Z,5.20
2022-08-23T13:39:38.515Z,4.07
2022-08-23T13:42:36.830Z,3.80
2022-08-23T13:45:26.671Z,4.35
2022-08-23T13:48:14.583Z,4.13
2022-08-23T13:51:20.866Z,5.55
2022-08-23T13:54:07.583Z,6.03
2022-08-23T13:56:54.142Z,4.85
2022-08-23T13:59:42.107Z,4.30
2022-08-23T14:02:26.874Z,4.25
2022-08-23T14:05:11.273Z,4.35
2022-08-23T14:07:55.365Z,4.60
2022-08-23T14:10:39.511Z,5.22
2022-08-23T14:13:29.015Z,4.72
2022-08-23T14:16:39.142Z,4.38
2022-08-23T14:22:27.871Z,4.50
2022-08-23T14:25:13.773Z,4.55
2022-08-23T14:27:58.970Z,4.15
2022-08-23T14:30:43.830Z,4.13
2022-08-23T14:33:29.354Z,4.07
2022-08-23T14:36:13.426Z,4.45
2022-08-23T14:38:57.544Z,4.55
2022-08-23T14:41:41.682Z,4.93
2022-08-23T14:44:30.240Z,4.55
2022-08-23T14:47:17.521Z,5.22
2022-08-23T14:50:03.433Z,4.95
2022-08-23T14:52:48.618Z,6.68
2022-08-23T14:55:32.777Z,5.05
2022-08-23T14:58:17.112Z,4.93
2022-08-23T15:01:01.211Z,4.47
2022-08-23T15:03:45.779Z,5.30
2022-08-23T15:06:31.736Z,5.60
2022-08-23T15:09:15.754Z,6.45
2022-08-23T15:15:05.125Z,5.30
2022-08-23T15:17:52.721Z,4.25
2022-08-23T15:20:40.468Z,5.30
2022-08-23T15:23:26.062Z,4.82
2022-08-23T15:26:10.986Z,5.60
2022-08-23T15:28:55.378Z,6.82
2022-08-23T15:31:39.756Z,7.32
2022-08-23T15:34:27.061Z,6.20
2022-08-23T15:37:13.369Z,5.85
2022-08-23T15:39:59.160Z,5.60
2022-08-23T15:42:43.479Z,5.10
2022-08-23T15:45:27.929Z,6.07
2022-08-23T15:48:17.495Z,6.95
2022-08-23T15:51:05.231Z,6.45
2022-08-23T15:53:49.856Z,7.03
2022-08-23T15:56:38.958Z,5.50
2022-08-23T15:59:23.389Z,6.55
2022-08-23T16:02:07.772Z,6.80
2022-08-23T16:04:52.088Z,6.45
2022-08-23T16:07:36.927Z,6.68
2022-08-23T16:10:21.318Z,6.50
2022-08-23T16:13:06.861Z,6.63
2022-08-23T16:15:51.338Z,6.32
2022-08-23T16:18:35.203Z,6.28
2022-08-23T16:21:19.254Z,6.22
2022-08-23T16:24:03.440Z,5.03
2022-08-23T16:26:48.290Z,5.95
2022-08-23T16:29:36.343Z,5.65
2022-08-23T16:32:20.500Z,5.90
2022-08-23T16:35:05.292Z,6.28
2022-08-23T16:37:49.374Z,5.28
2022-08-23T16:40:33.473Z,6.07
2022-08-23T16:43:17.451Z,4.95
2022-08-23T16:46:04.872Z,5.28
2022-08-23T16:48:48.977Z,5.30
2022-08-23T16:51:32.947Z,5.40
2022-08-23T16:54:18.652Z,5.18
2022-08-23T16:57:03.117Z,4.63
2022-08-23T16:59:47.253Z,5.63
2022-08-23T17:02:35.815Z,4.82
2022-08-23T17:05:20.437Z,5.97
2022-08-23T17:08:05.185Z,6.15
2022-08-23T17:10:49.335Z,5.88
2022-08-23T17:13:33.925Z,4.65
2022-08-23T17:16:19.047Z,4.78
2022-08-23T17:19:04.741Z,4.30
2022-08-23T17:21:49.111Z,6.22
2022-08-23T17:24:33.292Z,5.38
2022-08-23T17:27:19.661Z,4.30
2022-08-23T17:30:04.046Z,4.93
2022-08-23T17:32:49.035Z,4.28
2022-08-23T17:35:35.662Z,4.60
2022-08-23T17:38:20.239Z,4.72
2022-08-23T17:41:04.344Z,5.28
2022-08-23T17:43:48.444Z,4.80
2022-08-23T17:46:33.072Z,5.93
2022-08-23T17:49:18.810Z,5.43
2022-08-23T17:52:04.658Z,5.63
2022-08-23T17:54:48.744Z,6.10
2022-08-23T17:57:32.827Z,5.70
2022-08-23T18:00:18.880Z,5.20
2022-08-23T18:03:03.279Z,4.82
2022-08-23T18:05:48.197Z,6.07
2022-08-23T18:08:33.806Z,4.78
2022-08-23T18:11:17.929Z,5.72
2022-08-23T18:14:02.099Z,7.43
2022-08-23T18:16:46.079Z,6.88
2022-08-23T18:19:30.449Z,7.18
2022-08-23T18:22:14.443Z,5.88
2022-08-23T18:24:59.906Z,5.63
2022-08-23T18:28:01.523Z,5.80
2022-08-23T18:30:50.023Z,6.18
2022-08-23T18:33:47.031Z,7.63
2022-08-23T18:36:31.900Z,7.15
2022-08-23T18:39:17.224Z,5.53
2022-08-23T18:42:18.372Z,4.97
2022-08-23T18:45:02.462Z,5.40
2022-08-23T18:47:47.421Z,5.25
2022-08-23T18:50:31.458Z,5.45
2022-08-23T18:53:15.646Z,5.05
2022-08-23T18:55:59.688Z,5.68
2022-08-23T18:58:45.626Z,6.88
2022-08-23T19:01:31.689Z,6.13
2022-08-23T19:04:17.272Z,6.88
2022-08-23T19:07:01.342Z,6.00
2022-08-23T19:09:45.522Z,6.85
2022-08-23T19:12:30.058Z,6.68
2022-08-23T19:15:16.204Z,5.57
2022-08-23T19:18:00.181Z,4.57
2022-08-23T19:20:44.301Z,5.35
2022-08-23T19:23:28.536Z,6.93
2022-08-23T19:26:13.678Z,5.65
2022-08-23T19:28:57.826Z,5.15
2022-08-23T19:31:46.881Z,4.90
2022-08-23T19:34:31.230Z,4.88
2022-08-23T19:37:22.700Z,5.47
2022-08-23T19:40:08.544Z,4.85
2022-08-23T19:42:52.861Z,4.65
2022-08-23T19:45:36.969Z,5.15
2022-08-23T19:48:22.952Z,6.25
2022-08-23T19:51:10.722Z,5.85
2022-08-23T19:54:11.475Z,5.05
2022-08-23T19:56:58.356Z,5.68
2022-08-23T19:59:42.780Z,5.05
2022-08-23T20:02:27.227Z,4.85
2022-08-23T20:05:12.937Z,5.40
2022-08-23T20:07:57.049Z,5.40
2022-08-23T20:10:44.331Z,5.40
2022-08-23T20:13:28.551Z,5.40
2022-08-23T20:16:12.691Z,6.72
2022-08-23T20:18:57.462Z,6.50
2022-08-23T20:21:43.895Z,7.15
2022-08-23T20:24:48.722Z,6.75
2022-08-23T20:27:32.237Z,7.00
2022-08-23T20:30:16.331Z,6.85
2022-08-23T20:33:00.457Z,7.43
2022-08-23T20:35:44.561Z,5.22
2022-08-23T20:38:33.702Z,7.10
2022-08-23T20:41:18.369Z,5.90
2022-08-23T20:44:03.520Z,6.13
2022-08-23T20:46:53.211Z,5.82
2022-08-23T20:49:38.530Z,6.07
2022-08-23T20:52:22.416Z,9.77
2022-08-23T20:55:10.700Z,5.85
2022-08-23T20:57:55.299Z,5.28
2022-08-23T21:00:39.520Z,5.85
2022-08-23T21:03:23.925Z,5.95
2022-08-23T21:06:10.840Z,6.03
2022-08-23T21:08:57.046Z,7.05
2022-08-23T21:11:43.870Z,7.00
2022-08-23T21:14:27.986Z,7.05
2022-08-23T21:17:12.471Z,6.90
2022-08-23T21:19:56.757Z,6.43
2022-08-23T21:22:40.817Z,6.50
2022-08-23T21:25:24.773Z,8.73
2022-08-23T21:28:11.414Z,9.05
2022-08-23T21:31:04.479Z,9.00
2022-08-23T21:33:48.872Z,7.22
2022-08-23T21:36:33.000Z,6.82
2022-08-23T21:39:17.129Z,8.35
2022-08-23T21:42:01.571Z,8.38
2022-08-23T21:44:47.507Z,6.93
2022-08-23T21:47:32.121Z,7.50
2022-08-23T21:50:16.297Z,6.70
2022-08-23T21:53:01.634Z,7.32
2022-08-23T21:55:46.200Z,7.00
2022-08-23T21:58:30.315Z,7.30
2022-08-23T22:01:16.277Z,6.43
2022-08-23T22:04:00.410Z,6.15
2022-08-23T22:06:46.612Z,6.65
2022-08-23T22:09:31.224Z,6.20
2022-08-23T22:12:15.976Z,6.50
2022-08-23T22:15:00.048Z,5.65
2022-08-23T22:17:45.788Z,7.03
2022-08-23T22:20:31.591Z,6.47
2022-08-23T22:23:15.793Z,6.65
2022-08-23T22:26:00.676Z,6.43
2022-08-23T22:28:45.108Z,6.63
2022-08-23T22:31:29.685Z,6.05
2022-08-23T22:34:15.204Z,7.05
2022-08-23T22:36:59.231Z,7.13
2022-08-23T22:39:43.532Z,5.95
2022-08-23T22:42:27.752Z,7.50
2022-08-23T22:45:13.080Z,7.10
2022-08-23T22:47:57.326Z,7.63
2022-08-23T22:50:42.885Z,9.20
2022-08-23T22:53:27.073Z,6.30
2022-08-23T22:56:12.749Z,6.03
2022-08-23T22:58:57.745Z,6.20
2022-08-23T23:01:44.402Z,6.55
2022-08-23T23:04:29.653Z,6.80
2022-08-23T23:07:35.272Z,6.03
2022-08-23T23:10:19.537Z,6.35
2022-08-23T23:13:03.588Z,6.68
2022-08-23T23:15:47.575Z,7.53
2022-08-23T23:18:31.706Z,7.10
2022-08-23T23:21:14.644Z,7.97
2022-08-23T23:24:00.200Z,9.02
2022-08-23T23:26:47.796Z,7.57
2022-08-23T23:29:32.385Z,7.75
2022-08-23T23:32:18.343Z,8.43
2022-08-23T23:35:02.350Z,7.20
2022-08-23T23:37:49.599Z,8.38
2022-08-23T23:40:35.941Z,8.43
2022-08-23T23:43:19.986Z,8.20
2022-08-23T23:46:06.469Z,8.10
2022-08-23T23:48:51.375Z,8.23
2022-08-23T23:51:35.818Z,8.40
2022-08-23T23:54:19.954Z,8.85
2022-08-23T23:57:06.570Z,9.82
2022-08-23T23:59:51.050Z,9.13
